sensor_id;sensor_type;location;lat;lon;timestamp;temperature;humidity
1461;DHT22;724;49.910;12.530;2023-04-01T00:00:22;5.80;99.90
1461;DHT22;724;49.910;12.530;2023-04-01T00:02:49;5.80;99.90
1461;DHT22;724;49.910;12.530;2023-04-01T00:05:15;5.80;99.90
1461;DHT22;724;49.910;12.530;2023-04-01T00:07:44;5.80;99.90
1461;DHT22;724;49.910;12.530;2023-04-01T00:10:12;5.80;99.90
1461;DHT22;724;49.910;12.530;2023-04-01T00:12:39;5.80;99.90
1461;DHT22;724;49.910;12.530;2023-04-01T00:15:08;5.80;99.90
1461;DHT22;724;49.910;12.530;2023-04-01T00:17:35;5.90;99.90
1461;DHT22;724;49.910;12.530;2023-04-01T00:20:03;5.90;99.90
1461;DHT22;724;49.910;12.530;2023-04-01T00:22:30;5.80;99.90
1461;DHT22;724;49.910;12.530;2023-04-01T00:24:58;5.90;99.90
1461;DHT22;724;49.910;12.530;2023-04-01T00:27:25;5.80;99.90
1461;DHT22;724;49.910;12.530;2023-04-01T00:29:52;5.90;99.90
1461;DHT22;724;49.910;12.530;2023-04-01T00:32:18;5.90;99.90
1461;DHT22;724;49.910;12.530;2023-04-01T00:34:45;5.80;99.90
1461;DHT22;724;49.910;12.530;2023-04-01T00:37:12;5.90;99.90
1461;DHT22;724;49.910;12.530;2023-04-01T00:39:39;5.80;99.90
1461;DHT22;724;49.910;12.530;2023-04-01T00:42:09;5.80;99.90
1461;DHT22;724;49.910;12.530;2023-04-01T00:44:37;5.80;99.90
1461;DHT22;724;49.910;12.530;2023-04-01T00:47:04;5.80;99.90
1461;DHT22;724;49.910;12.530;2023-04-01T00:49:33;5.80;99.90
1461;DHT22;724;49.910;12.530;2023-04-01T00:52:02;5.80;99.90
1461;DHT22;724;49.910;12.530;2023-04-01T00:54:31;5.80;99.90
1461;DHT22;724;49.910;12.530;2023-04-01T00:57:00;5.80;99.90
1461;DHT22;724;49.910;12.530;2023-04-01T00:59:33;5.80;99.90
1461;DHT22;724;49.910;12.530;2023-04-01T01:02:02;5.80;99.90
1461;DHT22;724;49.910;12.530;2023-04-01T01:04:30;5.80;99.90
1461;DHT22;724;49.910;12.530;2023-04-01T01:07:07;5.80;99.90
1461;DHT22;724;49.910;12.530;2023-04-01T01:09:43;5.80;99.90
1461;DHT22;724;49.910;12.530;2023-04-01T01:12:16;5.80;99.90
1461;DHT22;724;49.910;12.530;2023-04-01T01:14:58;5.80;99.90
1461;DHT22;724;49.910;12.530;2023-04-01T01:17:33;5.80;99.90
1461;DHT22;724;49.910;12.530;2023-04-01T01:20:32;5.80;99.90
1461;DHT22;724;49.910;12.530;2023-04-01T01:23:37;5.80;99.90
1461;DHT22;724;49.910;12.530;2023-04-01T01:26:38;5.80;99.90
1461;DHT22;724;49.910;12.530;2023-04-01T01:31:49;5.80;99.90
1461;DHT22;724;49.910;12.530;2023-04-01T01:34:21;5.80;99.90
1461;DHT22;724;49.910;12.530;2023-04-01T01:36:53;5.80;99.90
1461;DHT22;724;49.910;12.530;2023-04-01T01:39:22;5.80;99.90
1461;DHT22;724;49.910;12.530;2023-04-01T01:41:54;5.80;99.90
1461;DHT22;724;49.910;12.530;2023-04-01T01:44:22;5.70;99.90
1461;DHT22;724;49.910;12.530;2023-04-01T01:46:50;5.80;99.90
1461;DHT22;724;49.910;12.530;2023-04-01T01:49:17;5.80;99.90
1461;DHT22;724;49.910;12.530;2023-04-01T01:51:45;5.80;99.90
1461;DHT22;724;49.910;12.530;2023-04-01T01:54:16;5.80;99.90
1461;DHT22;724;49.910;12.530;2023-04-01T01:56:45;5.70;99.90
1461;DHT22;724;49.910;12.530;2023-04-01T01:59:15;5.80;99.90
1461;DHT22;724;49.910;12.530;2023-04-01T02:01:44;5.80;99.90
1461;DHT22;724;49.910;12.530;2023-04-01T02:04:13;5.80;99.90
1461;DHT22;724;49.910;12.530;2023-04-01T02:06:45;5.80;99.90
1461;DHT22;724;49.910;12.530;2023-04-01T02:09:15;5.80;99.90
1461;DHT22;724;49.910;12.530;2023-04-01T02:11:47;5.80;99.90
1461;DHT22;724;49.910;12.530;2023-04-01T02:14:17;5.70;99.90
1461;DHT22;724;49.910;12.530;2023-04-01T02:16:49;5.80;99.90
1461;DHT22;724;49.910;12.530;2023-04-01T02:19:18;5.70;99.90
1461;DHT22;724;49.910;12.530;2023-04-01T02:21:49;5.80;99.90
1461;DHT22;724;49.910;12.530;2023-04-01T02:24:19;5.70;99.90
1461;DHT22;724;49.910;12.530;2023-04-01T02:26:48;5.70;99.90
1461;DHT22;724;49.910;12.530;2023-04-01T02:29:18;5.70;99.90
1461;DHT22;724;49.910;12.530;2023-04-01T02:31:46;5.70;99.90
1461;DHT22;724;49.910;12.530;2023-04-01T02:34:13;5.80;99.90
1461;DHT22;724;49.910;12.530;2023-04-01T02:36:40;5.80;99.90
1461;DHT22;724;49.910;12.530;2023-04-01T02:39:08;5.80;99.90
1461;DHT22;724;49.910;12.530;2023-04-01T02:41:40;5.80;99.90
1461;DHT22;724;49.910;12.530;2023-04-01T02:44:07;5.70;99.90
1461;DHT22;724;49.910;12.530;2023-04-01T02:46:35;5.80;99.90
1461;DHT22;724;49.910;12.530;2023-04-01T02:49:02;5.80;99.90
1461;DHT22;724;49.910;12.530;2023-04-01T02:51:29;5.80;99.90
1461;DHT22;724;49.910;12.530;2023-04-01T02:53:56;5.80;99.90
1461;DHT22;724;49.910;12.530;2023-04-01T02:56:22;5.80;99.90
1461;DHT22;724;49.910;12.530;2023-04-01T02:58:50;5.80;99.90
1461;DHT22;724;49.910;12.530;2023-04-01T03:01:17;5.80;99.90
1461;DHT22;724;49.910;12.530;2023-04-01T03:03:44;5.80;99.90
1461;DHT22;724;49.910;12.530;2023-04-01T03:06:13;5.80;99.90
1461;DHT22;724;49.910;12.530;2023-04-01T03:08:40;5.70;99.90
1461;DHT22;724;49.910;12.530;2023-04-01T03:11:09;5.80;99.90
1461;DHT22;724;49.910;12.530;2023-04-01T03:13:36;5.70;99.90
1461;DHT22;724;49.910;12.530;2023-04-01T03:16:04;5.70;99.90
1461;DHT22;724;49.910;12.530;2023-04-01T03:18:31;5.70;99.90
1461;DHT22;724;49.910;12.530;2023-04-01T03:21:12;5.80;99.90
1461;DHT22;724;49.910;12.530;2023-04-01T03:23:39;5.80;99.90
1461;DHT22;724;49.910;12.530;2023-04-01T03:26:06;5.70;99.90
1461;DHT22;724;49.910;12.530;2023-04-01T03:28:33;5.70;99.90
1461;DHT22;724;49.910;12.530;2023-04-01T03:30:59;5.70;99.90
1461;DHT22;724;49.910;12.530;2023-04-01T03:33:28;5.80;99.90
1461;DHT22;724;49.910;12.530;2023-04-01T03:35:54;5.70;99.90
1461;DHT22;724;49.910;12.530;2023-04-01T03:38:21;5.80;99.90
1461;DHT22;724;49.910;12.530;2023-04-01T03:40:48;5.80;99.90
1461;DHT22;724;49.910;12.530;2023-04-01T03:43:14;5.80;99.90
1461;DHT22;724;49.910;12.530;2023-04-01T03:45:44;5.80;99.90
1461;DHT22;724;49.910;12.530;2023-04-01T03:48:11;5.80;99.90
1461;DHT22;724;49.910;12.530;2023-04-01T03:50:39;5.80;99.90
1461;DHT22;724;49.910;12.530;2023-04-01T03:53:06;5.80;99.90
1461;DHT22;724;49.910;12.530;2023-04-01T03:55:33;5.70;99.90
1461;DHT22;724;49.910;12.530;2023-04-01T03:58:00;5.70;99.90
1461;DHT22;724;49.910;12.530;2023-04-01T04:00:28;5.70;99.90
1461;DHT22;724;49.910;12.530;2023-04-01T04:02:55;5.70;99.90
1461;DHT22;724;49.910;12.530;2023-04-01T04:05:22;5.70;99.90
1461;DHT22;724;49.910;12.530;2023-04-01T04:07:51;5.70;99.90
1461;DHT22;724;49.910;12.530;2023-04-01T04:10:18;5.70;99.90
1461;DHT22;724;49.910;12.530;2023-04-01T04:12:46;5.70;99.90
1461;DHT22;724;49.910;12.530;2023-04-01T04:15:12;5.60;99.90
1461;DHT22;724;49.910;12.530;2023-04-01T04:17:39;5.60;99.90
1461;DHT22;724;49.910;12.530;2023-04-01T04:20:07;5.70;99.90
1461;DHT22;724;49.910;12.530;2023-04-01T04:22:34;5.70;99.90
1461;DHT22;724;49.910;12.530;2023-04-01T04:25:03;5.70;1.00
1461;DHT22;724;49.910;12.530;2023-04-01T04:27:30;5.60;1.00
1461;DHT22;724;49.910;12.530;2023-04-01T04:29:56;5.70;1.00
1461;DHT22;724;49.910;12.530;2023-04-01T04:32:23;5.70;1.00
1461;DHT22;724;49.910;12.530;2023-04-01T04:34:50;5.60;1.00
1461;DHT22;724;49.910;12.530;2023-04-01T04:37:17;5.70;1.00
1461;DHT22;724;49.910;12.530;2023-04-01T04:39:43;5.70;1.00
1461;DHT22;724;49.910;12.530;2023-04-01T04:42:11;5.70;1.00
1461;DHT22;724;49.910;12.530;2023-04-01T04:44:39;5.60;1.00
1461;DHT22;724;49.910;12.530;2023-04-01T04:47:05;5.60;1.00
1461;DHT22;724;49.910;12.530;2023-04-01T04:49:32;5.60;1.00
1461;DHT22;724;49.910;12.530;2023-04-01T04:51:59;5.60;1.00
1461;DHT22;724;49.910;12.530;2023-04-01T04:54:26;5.60;1.00
1461;DHT22;724;49.910;12.530;2023-04-01T04:56:54;5.60;1.00
1461;DHT22;724;49.910;12.530;2023-04-01T04:59:22;5.50;75.60
1461;DHT22;724;49.910;12.530;2023-04-01T05:01:48;5.50;99.90
1461;DHT22;724;49.910;12.530;2023-04-01T05:04:15;5.60;99.90
1461;DHT22;724;49.910;12.530;2023-04-01T05:06:42;5.60;99.90
1461;DHT22;724;49.910;12.530;2023-04-01T05:09:09;5.60;99.90
1461;DHT22;724;49.910;12.530;2023-04-01T05:11:36;5.50;99.90
1461;DHT22;724;49.910;12.530;2023-04-01T05:14:03;5.50;99.90
1461;DHT22;724;49.910;12.530;2023-04-01T05:16:31;5.50;99.90
1461;DHT22;724;49.910;12.530;2023-04-01T05:18:58;5.50;99.90
1461;DHT22;724;49.910;12.530;2023-04-01T05:21:25;5.50;99.90
1461;DHT22;724;49.910;12.530;2023-04-01T05:23:52;5.50;99.90
1461;DHT22;724;49.910;12.530;2023-04-01T05:26:19;5.60;99.90
1461;DHT22;724;49.910;12.530;2023-04-01T05:28:45;5.60;99.90
1461;DHT22;724;49.910;12.530;2023-04-01T05:31:12;5.60;99.90
1461;DHT22;724;49.910;12.530;2023-04-01T05:33:40;5.60;74.60
1461;DHT22;724;49.910;12.530;2023-04-01T05:36:08;5.60;65.60
1461;DHT22;724;49.910;12.530;2023-04-01T05:38:35;5.70;1.00
1461;DHT22;724;49.910;12.530;2023-04-01T05:41:03;5.80;1.00
1461;DHT22;724;49.910;12.530;2023-04-01T05:43:30;5.90;1.00
1461;DHT22;724;49.910;12.530;2023-04-01T05:45:57;5.80;1.00
1461;DHT22;724;49.910;12.530;2023-04-01T05:48:24;5.80;1.00
1461;DHT22;724;49.910;12.530;2023-04-01T05:50:52;5.80;1.00
1461;DHT22;724;49.910;12.530;2023-04-01T05:53:18;5.80;1.00
1461;DHT22;724;49.910;12.530;2023-04-01T05:55:45;5.90;1.00
1461;DHT22;724;49.910;12.530;2023-04-01T05:58:12;6.00;99.90
1461;DHT22;724;49.910;12.530;2023-04-01T06:00:39;6.00;96.80
1461;DHT22;724;49.910;12.530;2023-04-01T06:03:05;5.90;29.00
1461;DHT22;724;49.910;12.530;2023-04-01T06:05:38;5.90;99.90
1461;DHT22;724;49.910;12.530;2023-04-01T06:08:11;5.90;99.90
1461;DHT22;724;49.910;12.530;2023-04-01T06:10:48;6.00;99.90
1461;DHT22;724;49.910;12.530;2023-04-01T06:13:23;6.00;99.90
1461;DHT22;724;49.910;12.530;2023-04-01T06:16:01;6.20;1.00
1461;DHT22;724;49.910;12.530;2023-04-01T06:18:45;6.20;1.00
1461;DHT22;724;49.910;12.530;2023-04-01T06:21:29;6.30;1.00
1461;DHT22;724;49.910;12.530;2023-04-01T06:24:15;6.10;99.90
1461;DHT22;724;49.910;12.530;2023-04-01T06:26:49;6.10;99.90
1461;DHT22;724;49.910;12.530;2023-04-01T06:29:47;6.30;99.90
1461;DHT22;724;49.910;12.530;2023-04-01T06:32:30;6.30;1.00
1461;DHT22;724;49.910;12.530;2023-04-01T06:35:14;6.30;1.00
1461;DHT22;724;49.910;12.530;2023-04-01T06:38:00;6.20;1.00
1461;DHT22;724;49.910;12.530;2023-04-01T06:40:47;6.20;1.00
1461;DHT22;724;49.910;12.530;2023-04-01T06:43:23;6.20;99.90
1461;DHT22;724;49.910;12.530;2023-04-01T06:45:55;6.30;99.90
1461;DHT22;724;49.910;12.530;2023-04-01T06:48:38;6.40;1.00
1461;DHT22;724;49.910;12.530;2023-04-01T06:51:18;6.40;1.00
1461;DHT22;724;49.910;12.530;2023-04-01T06:53:54;6.40;99.90
1461;DHT22;724;49.910;12.530;2023-04-01T06:56:26;6.30;99.90
1461;DHT22;724;49.910;12.530;2023-04-01T06:58:58;6.20;1.00
1461;DHT22;724;49.910;12.530;2023-04-01T07:01:29;6.10;1.00
1461;DHT22;724;49.910;12.530;2023-04-01T07:04:00;6.20;1.00
1461;DHT22;724;49.910;12.530;2023-04-01T07:06:31;6.40;1.00
1461;DHT22;724;49.910;12.530;2023-04-01T07:09:00;6.70;1.00
1461;DHT22;724;49.910;12.530;2023-04-01T07:11:32;6.60;99.90
1461;DHT22;724;49.910;12.530;2023-04-01T07:14:02;6.60;1.00
1461;DHT22;724;49.910;12.530;2023-04-01T07:16:34;6.50;1.00
1461;DHT22;724;49.910;12.530;2023-04-01T07:19:05;6.50;1.00
1461;DHT22;724;49.910;12.530;2023-04-01T07:21:35;6.50;1.00
1461;DHT22;724;49.910;12.530;2023-04-01T07:24:06;6.60;1.00
1461;DHT22;724;49.910;12.530;2023-04-01T07:26:38;6.60;1.00
1461;DHT22;724;49.910;12.530;2023-04-01T07:29:05;6.50;1.00
1461;DHT22;724;49.910;12.530;2023-04-01T07:34:35;6.60;1.00
1461;DHT22;724;49.910;12.530;2023-04-01T07:37:09;6.40;1.00
1461;DHT22;724;49.910;12.530;2023-04-01T07:39:43;6.40;1.00
1461;DHT22;724;49.910;12.530;2023-04-01T07:42:23;6.40;57.30
1461;DHT22;724;49.910;12.530;2023-04-01T07:45:00;6.50;1.00
1461;DHT22;724;49.910;12.530;2023-04-01T07:47:53;6.40;1.00
1461;DHT22;724;49.910;12.530;2023-04-01T07:50:27;6.40;1.00
1461;DHT22;724;49.910;12.530;2023-04-01T07:53:03;6.40;1.00
1461;DHT22;724;49.910;12.530;2023-04-01T07:55:39;6.60;1.00
1461;DHT22;724;49.910;12.530;2023-04-01T07:58:15;6.70;99.90
1461;DHT22;724;49.910;12.530;2023-04-01T08:00:50;7.30;65.90
1461;DHT22;724;49.910;12.530;2023-04-01T08:03:29;8.10;99.90
1461;DHT22;724;49.910;12.530;2023-04-01T08:06:00;8.30;99.90
1461;DHT22;724;49.910;12.530;2023-04-01T08:08:37;9.70;1.00
1461;DHT22;724;49.910;12.530;2023-04-01T08:11:14;10.00;1.00
1461;DHT22;724;49.910;12.530;2023-04-01T08:13:53;9.20;1.00
1461;DHT22;724;49.910;12.530;2023-04-01T08:16:31;8.60;1.00
1461;DHT22;724;49.910;12.530;2023-04-01T08:19:06;8.20;1.00
1461;DHT22;724;49.910;12.530;2023-04-01T08:21:43;8.40;1.00
1461;DHT22;724;49.910;12.530;2023-04-01T08:24:27;7.90;99.90
1461;DHT22;724;49.910;12.530;2023-04-01T08:26:58;7.40;1.00
1461;DHT22;724;49.910;12.530;2023-04-01T08:29:34;7.20;1.00
1461;DHT22;724;49.910;12.530;2023-04-01T08:32:08;7.10;1.00
1461;DHT22;724;49.910;12.530;2023-04-01T08:34:38;6.90;37.30
1461;DHT22;724;49.910;12.530;2023-04-01T08:37:11;6.90;99.90
1461;DHT22;724;49.910;12.530;2023-04-01T08:39:42;6.60;99.90
1461;DHT22;724;49.910;12.530;2023-04-01T08:42:27;6.60;99.90
1461;DHT22;724;49.910;12.530;2023-04-01T08:45:18;6.80;1.00
1461;DHT22;724;49.910;12.530;2023-04-01T08:48:28;6.70;99.90
1461;DHT22;724;49.910;12.530;2023-04-01T08:54:14;6.80;99.90
1461;DHT22;724;49.910;12.530;2023-04-01T08:56:53;7.10;1.00
1461;DHT22;724;49.910;12.530;2023-04-01T08:59:39;7.00;99.90
1461;DHT22;724;49.910;12.530;2023-04-01T09:03:02;6.90;1.00
1461;DHT22;724;49.910;12.530;2023-04-01T09:05:38;7.10;1.00
1461;DHT22;724;49.910;12.530;2023-04-01T09:08:31;7.30;1.00
1461;DHT22;724;49.910;12.530;2023-04-01T09:11:07;7.30;1.00
1461;DHT22;724;49.910;12.530;2023-04-01T09:16:54;7.30;99.90
1461;DHT22;724;49.910;12.530;2023-04-01T09:19:32;7.60;99.90
1461;DHT22;724;49.910;12.530;2023-04-01T09:22:19;7.60;99.90
1461;DHT22;724;49.910;12.530;2023-04-01T09:27:56;7.50;99.90
1461;DHT22;724;49.910;12.530;2023-04-01T09:30:58;7.70;99.90
1461;DHT22;724;49.910;12.530;2023-04-01T09:36:46;7.80;27.80
1461;DHT22;724;49.910;12.530;2023-04-01T09:39:29;7.60;1.00
1461;DHT22;724;49.910;12.530;2023-04-01T09:42:23;7.60;1.00
1461;DHT22;724;49.910;12.530;2023-04-01T09:44:58;7.50;1.00
1461;DHT22;724;49.910;12.530;2023-04-01T09:47:45;7.40;1.00
1461;DHT22;724;49.910;12.530;2023-04-01T09:50:42;7.30;1.00
1461;DHT22;724;49.910;12.530;2023-04-01T09:53:27;7.30;1.00
1461;DHT22;724;49.910;12.530;2023-04-01T09:56:19;7.40;1.00
1461;DHT22;724;49.910;12.530;2023-04-01T09:59:21;7.40;1.00
1461;DHT22;724;49.910;12.530;2023-04-01T10:02:19;7.40;1.00
1461;DHT22;724;49.910;12.530;2023-04-01T10:05:34;7.40;1.00
1461;DHT22;724;49.910;12.530;2023-04-01T10:08:26;7.40;1.00
1461;DHT22;724;49.910;12.530;2023-04-01T10:11:09;7.40;1.00
1461;DHT22;724;49.910;12.530;2023-04-01T10:14:07;7.50;1.00
1461;DHT22;724;49.910;12.530;2023-04-01T10:17:03;7.50;1.00
1461;DHT22;724;49.910;12.530;2023-04-01T10:20:12;7.50;1.00
1461;DHT22;724;49.910;12.530;2023-04-01T10:26:27;7.50;1.00
1461;DHT22;724;49.910;12.530;2023-04-01T10:32:43;7.40;1.00
1461;DHT22;724;49.910;12.530;2023-04-01T10:35:38;7.50;1.00
1461;DHT22;724;49.910;12.530;2023-04-01T10:44:45;7.90;1.00
1461;DHT22;724;49.910;12.530;2023-04-01T10:50:31;7.90;1.00
1461;DHT22;724;49.910;12.530;2023-04-01T10:56:20;7.80;1.00
1461;DHT22;724;49.910;12.530;2023-04-01T10:59:27;8.00;1.00
1461;DHT22;724;49.910;12.530;2023-04-01T11:02:40;8.30;1.00
1461;DHT22;724;49.910;12.530;2023-04-01T11:11:47;8.10;1.00
1461;DHT22;724;49.910;12.530;2023-04-01T11:14:35;8.20;1.00
1461;DHT22;724;49.910;12.530;2023-04-01T11:17:27;8.10;1.00
1461;DHT22;724;49.910;12.530;2023-04-01T11:26:09;8.00;1.00
1461;DHT22;724;49.910;12.530;2023-04-01T11:28:53;8.10;1.00
1461;DHT22;724;49.910;12.530;2023-04-01T11:44:39;7.80;99.90
1461;DHT22;724;49.910;12.530;2023-04-01T11:47:39;7.80;99.90
1461;DHT22;724;49.910;12.530;2023-04-01T11:50:18;7.80;99.90
1461;DHT22;724;49.910;12.530;2023-04-01T11:52:57;8.10;99.90
1461;DHT22;724;49.910;12.530;2023-04-01T11:55:35;8.10;99.90
1461;DHT22;724;49.910;12.530;2023-04-01T11:58:35;7.80;99.90
1461;DHT22;724;49.910;12.530;2023-04-01T12:04:05;8.10;99.90
1461;DHT22;724;49.910;12.530;2023-04-01T12:06:44;8.10;99.90
1461;DHT22;724;49.910;12.530;2023-04-01T12:09:22;8.10;99.90
1461;DHT22;724;49.910;12.530;2023-04-01T12:17:10;8.20;99.90
1461;DHT22;724;49.910;12.530;2023-04-01T12:24:58;8.20;99.90
1461;DHT22;724;49.910;12.530;2023-04-01T12:33:01;7.80;1.00
1461;DHT22;724;49.910;12.530;2023-04-01T12:35:41;7.70;1.00
1461;DHT22;724;49.910;12.530;2023-04-01T12:38:18;7.80;1.00
1461;DHT22;724;49.910;12.530;2023-04-01T12:41:09;7.80;1.00
1461;DHT22;724;49.910;12.530;2023-04-01T12:44:16;8.40;1.00
1461;DHT22;724;49.910;12.530;2023-04-01T12:49:34;8.20;99.90
1461;DHT22;724;49.910;12.530;2023-04-01T12:57:34;8.50;16.90
1461;DHT22;724;49.910;12.530;2023-04-01T13:00:24;8.60;1.00
1461;DHT22;724;49.910;12.530;2023-04-01T13:03:10;8.40;99.90
1461;DHT22;724;49.910;12.530;2023-04-01T13:06:21;8.30;99.90
1461;DHT22;724;49.910;12.530;2023-04-01T13:08:55;8.00;1.00
1461;DHT22;724;49.910;12.530;2023-04-01T13:11:36;7.50;99.90
1461;DHT22;724;49.910;12.530;2023-04-01T13:14:24;7.60;1.00
1461;DHT22;724;49.910;12.530;2023-04-01T13:17:00;8.20;99.90
1461;DHT22;724;49.910;12.530;2023-04-01T13:19:36;8.00;1.00
1461;DHT22;724;49.910;12.530;2023-04-01T13:22:09;8.00;1.00
1461;DHT22;724;49.910;12.530;2023-04-01T13:24:47;8.40;1.00
1461;DHT22;724;49.910;12.530;2023-04-01T13:27:19;8.50;1.00
1461;DHT22;724;49.910;12.530;2023-04-01T13:30:02;8.40;1.00
1461;DHT22;724;49.910;12.530;2023-04-01T13:32:36;8.40;1.00
1461;DHT22;724;49.910;12.530;2023-04-01T13:35:20;8.40;1.00
1461;DHT22;724;49.910;12.530;2023-04-01T13:38:04;8.10;99.90
1461;DHT22;724;49.910;12.530;2023-04-01T13:40:41;8.10;1.00
1461;DHT22;724;49.910;12.530;2023-04-01T13:43:15;8.10;1.00
1461;DHT22;724;49.910;12.530;2023-04-01T13:46:05;7.90;1.00
1461;DHT22;724;49.910;12.530;2023-04-01T13:52:03;7.90;99.90
1461;DHT22;724;49.910;12.530;2023-04-01T13:58:07;7.50;1.00
1461;DHT22;724;49.910;12.530;2023-04-01T14:00:47;7.30;1.00
1461;DHT22;724;49.910;12.530;2023-04-01T14:03:48;7.30;99.90
1461;DHT22;724;49.910;12.530;2023-04-01T14:06:23;7.30;99.90
1461;DHT22;724;49.910;12.530;2023-04-01T14:09:09;7.20;1.00
1461;DHT22;724;49.910;12.530;2023-04-01T14:11:47;7.60;1.00
1461;DHT22;724;49.910;12.530;2023-04-01T14:14:24;7.30;1.00
1461;DHT22;724;49.910;12.530;2023-04-01T14:17:10;7.30;99.90
1461;DHT22;724;49.910;12.530;2023-04-01T14:20:02;7.40;99.90
1461;DHT22;724;49.910;12.530;2023-04-01T14:22:42;7.00;99.90
1461;DHT22;724;49.910;12.530;2023-04-01T14:25:26;7.00;1.00
1461;DHT22;724;49.910;12.530;2023-04-01T14:28:07;7.00;1.00
1461;DHT22;724;49.910;12.530;2023-04-01T14:30:42;7.20;99.90
1461;DHT22;724;49.910;12.530;2023-04-01T14:33:30;7.20;99.90
1461;DHT22;724;49.910;12.530;2023-04-01T14:36:14;7.20;99.90
1461;DHT22;724;49.910;12.530;2023-04-01T14:38:54;7.10;1.00
1461;DHT22;724;49.910;12.530;2023-04-01T14:41:35;7.20;1.00
1461;DHT22;724;49.910;12.530;2023-04-01T14:44:38;7.10;1.00
1461;DHT22;724;49.910;12.530;2023-04-01T14:47:25;7.20;54.10
1461;DHT22;724;49.910;12.530;2023-04-01T14:50:03;7.20;5.40
1461;DHT22;724;49.910;12.530;2023-04-01T14:52:33;7.00;99.90
1461;DHT22;724;49.910;12.530;2023-04-01T14:55:18;7.00;99.90
1461;DHT22;724;49.910;12.530;2023-04-01T14:57:58;7.00;99.90
1461;DHT22;724;49.910;12.530;2023-04-01T15:00:27;7.10;99.90
1461;DHT22;724;49.910;12.530;2023-04-01T15:03:11;7.10;99.90
1461;DHT22;724;49.910;12.530;2023-04-01T15:05:48;7.10;99.90
1461;DHT22;724;49.910;12.530;2023-04-01T15:08:19;7.00;1.00
1461;DHT22;724;49.910;12.530;2023-04-01T15:11:17;6.90;1.00
1461;DHT22;724;49.910;12.530;2023-04-01T15:14:06;6.90;1.00
1461;DHT22;724;49.910;12.530;2023-04-01T15:16:46;7.10;1.00
1461;DHT22;724;49.910;12.530;2023-04-01T15:19:23;7.10;1.00
1461;DHT22;724;49.910;12.530;2023-04-01T15:22:13;7.00;1.00
1461;DHT22;724;49.910;12.530;2023-04-01T15:25:00;7.10;1.00
1461;DHT22;724;49.910;12.530;2023-04-01T15:27:34;7.10;1.00
1461;DHT22;724;49.910;12.530;2023-04-01T15:30:27;7.00;1.00
1461;DHT22;724;49.910;12.530;2023-04-01T15:35:46;7.00;3.40
1461;DHT22;724;49.910;12.530;2023-04-01T15:38:26;7.00;11.50
1461;DHT22;724;49.910;12.530;2023-04-01T15:41:02;6.90;99.90
1461;DHT22;724;49.910;12.530;2023-04-01T15:43:40;6.90;99.90
1461;DHT22;724;49.910;12.530;2023-04-01T15:46:43;6.90;99.90
1461;DHT22;724;49.910;12.530;2023-04-01T15:49:34;6.90;99.90
1461;DHT22;724;49.910;12.530;2023-04-01T15:52:06;6.80;99.90
1461;DHT22;724;49.910;12.530;2023-04-01T15:55:01;6.90;99.90
1461;DHT22;724;49.910;12.530;2023-04-01T15:57:38;6.90;99.90
1461;DHT22;724;49.910;12.530;2023-04-01T16:00:16;6.80;99.90
1461;DHT22;724;49.910;12.530;2023-04-01T16:02:48;6.80;99.90
1461;DHT22;724;49.910;12.530;2023-04-01T16:05:31;6.80;99.90
1461;DHT22;724;49.910;12.530;2023-04-01T16:08:43;6.80;99.90
1461;DHT22;724;49.910;12.530;2023-04-01T16:11:21;6.80;99.90
1461;DHT22;724;49.910;12.530;2023-04-01T16:13:59;6.70;99.90
1461;DHT22;724;49.910;12.530;2023-04-01T16:16:44;6.80;99.90
1461;DHT22;724;49.910;12.530;2023-04-01T16:19:29;6.70;99.90
1461;DHT22;724;49.910;12.530;2023-04-01T16:22:05;6.70;99.90
1461;DHT22;724;49.910;12.530;2023-04-01T16:24:38;6.60;99.90
1461;DHT22;724;49.910;12.530;2023-04-01T16:27:12;6.70;99.90
1461;DHT22;724;49.910;12.530;2023-04-01T16:29:45;6.70;99.90
1461;DHT22;724;49.910;12.530;2023-04-01T16:32:31;6.60;99.90
1461;DHT22;724;49.910;12.530;2023-04-01T16:35:25;6.70;99.90
1461;DHT22;724;49.910;12.530;2023-04-01T16:38:01;6.60;99.90
1461;DHT22;724;49.910;12.530;2023-04-01T16:40:40;6.60;99.90
1461;DHT22;724;49.910;12.530;2023-04-01T16:43:13;6.60;99.90
1461;DHT22;724;49.910;12.530;2023-04-01T16:45:45;6.60;99.90
1461;DHT22;724;49.910;12.530;2023-04-01T16:48:16;6.60;99.90
1461;DHT22;724;49.910;12.530;2023-04-01T16:50:53;6.50;99.90
1461;DHT22;724;49.910;12.530;2023-04-01T16:53:35;6.60;99.90
1461;DHT22;724;49.910;12.530;2023-04-01T16:56:10;6.50;99.90
1461;DHT22;724;49.910;12.530;2023-04-01T16:58:43;6.50;99.90
1461;DHT22;724;49.910;12.530;2023-04-01T17:01:19;6.50;99.90
1461;DHT22;724;49.910;12.530;2023-04-01T17:03:52;6.50;99.90
1461;DHT22;724;49.910;12.530;2023-04-01T17:06:31;6.50;99.90
1461;DHT22;724;49.910;12.530;2023-04-01T17:09:14;6.50;99.90
1461;DHT22;724;49.910;12.530;2023-04-01T17:11:57;6.50;99.90
1461;DHT22;724;49.910;12.530;2023-04-01T17:14:30;6.40;99.90
1461;DHT22;724;49.910;12.530;2023-04-01T17:17:12;6.50;99.90
1461;DHT22;724;49.910;12.530;2023-04-01T17:19:56;6.40;99.90
1461;DHT22;724;49.910;12.530;2023-04-01T17:22:31;6.50;99.90
1461;DHT22;724;49.910;12.530;2023-04-01T17:25:16;6.50;99.90
1461;DHT22;724;49.910;12.530;2023-04-01T17:27:51;6.40;99.90
1461;DHT22;724;49.910;12.530;2023-04-01T17:30:28;6.40;99.90
1461;DHT22;724;49.910;12.530;2023-04-01T17:33:21;6.40;99.90
1461;DHT22;724;49.910;12.530;2023-04-01T17:35:56;6.40;99.90
1461;DHT22;724;49.910;12.530;2023-04-01T17:38:40;6.40;99.90
1461;DHT22;724;49.910;12.530;2023-04-01T17:41:25;6.40;99.90
1461;DHT22;724;49.910;12.530;2023-04-01T17:44:00;6.30;99.90
1461;DHT22;724;49.910;12.530;2023-04-01T17:46:34;6.40;99.90
1461;DHT22;724;49.910;12.530;2023-04-01T17:49:18;6.40;99.90
1461;DHT22;724;49.910;12.530;2023-04-01T17:51:55;6.40;99.90
1461;DHT22;724;49.910;12.530;2023-04-01T17:54:30;6.40;99.90
1461;DHT22;724;49.910;12.530;2023-04-01T17:57:19;6.30;99.90
1461;DHT22;724;49.910;12.530;2023-04-01T17:59:53;6.30;99.90
1461;DHT22;724;49.910;12.530;2023-04-01T18:02:26;6.30;99.90
1461;DHT22;724;49.910;12.530;2023-04-01T18:05:20;6.30;99.90
1461;DHT22;724;49.910;12.530;2023-04-01T18:10:55;6.40;99.90
1461;DHT22;724;49.910;12.530;2023-04-01T18:13:42;6.30;99.90
1461;DHT22;724;49.910;12.530;2023-04-01T18:16:32;6.30;99.90
1461;DHT22;724;49.910;12.530;2023-04-01T18:19:12;6.30;99.90
1461;DHT22;724;49.910;12.530;2023-04-01T18:21:46;6.30;99.90
1461;DHT22;724;49.910;12.530;2023-04-01T18:24:22;6.30;99.90
1461;DHT22;724;49.910;12.530;2023-04-01T18:27:02;6.30;99.90
1461;DHT22;724;49.910;12.530;2023-04-01T18:29:37;6.30;99.90
1461;DHT22;724;49.910;12.530;2023-04-01T18:32:26;6.30;99.90
1461;DHT22;724;49.910;12.530;2023-04-01T18:35:00;6.30;99.90
1461;DHT22;724;49.910;12.530;2023-04-01T18:37:31;6.30;99.90
1461;DHT22;724;49.910;12.530;2023-04-01T18:40:10;6.30;99.90
1461;DHT22;724;49.910;12.530;2023-04-01T18:42:44;6.30;99.90
1461;DHT22;724;49.910;12.530;2023-04-01T18:45:21;6.30;99.90
1461;DHT22;724;49.910;12.530;2023-04-01T18:47:58;6.30;99.90
1461;DHT22;724;49.910;12.530;2023-04-01T18:50:30;6.30;99.90
1461;DHT22;724;49.910;12.530;2023-04-01T18:53:09;6.30;99.90
1461;DHT22;724;49.910;12.530;2023-04-01T18:55:41;6.30;99.90
1461;DHT22;724;49.910;12.530;2023-04-01T18:58:26;6.30;99.90
1461;DHT22;724;49.910;12.530;2023-04-01T19:03:53;6.30;99.90
1461;DHT22;724;49.910;12.530;2023-04-01T19:06:28;6.30;99.90
1461;DHT22;724;49.910;12.530;2023-04-01T19:09:12;6.30;99.90
1461;DHT22;724;49.910;12.530;2023-04-01T19:11:47;6.30;99.90